KJFX

Walker County-Bevill Field Airport

Jasper, Alabama, USA
METAR KJFX 241435Z AUTO VRB05KT 10SM 31/25 A3003 RMK AO2 PWINO
Observed Flight Rules
Jun-24 @ 14:35 UTC (24 minutes ago)
Wind Visibility
Variable at 5 knots 10 miles
Temperatures Readings
Current 31°C / 88°F
Dewpoint 25°C / 77°F
Humidity 70%
Altimeter 30.03" Hg
Pressure 1017 hPa
Elevation 148
METAR KJFX 241435Z AUTO VRB05KT 10SM 31/25 A3003 RMK AO2 PWINO
Observed Flight Rules
Jun-24 @ 14:35 UTC
(24 minutes ago)
Wind Visibility
Variable at 5 knots 10 miles
Temperature Dewpoint
31°C / 88°F 25°C / 77°F
Humidity Altimeter Pressure
70% 30.03" Hg 1017 hPa